Time;durP1;ratioP1;P1;durP2;ratioP2;P2;SDS_P1;SDS_P2;PMS_P1;PMS_P2;Temp;Humidity;BMP_temperature;BMP_pressure;BME280_temperature;BME280_humidity;BME280_pressure;Samples;Min_cycle;Max_cycle;Signal;HPM_P1;HPM_P2
2021/11/30 00:01:49;;;;;;;12.75;5.88;;;;;;;0.75;100.00;98621.06;5032805;28;20104;-71
2021/11/30 00:04:16;;;;;;;12.18;6.68;;;;;;;0.88;100.00;98620.72;5032727;28;20470;-71
2021/11/30 00:06:42;;;;;;;18.00;7.32;;;;;;;0.93;100.00;98620.31;5038102;28;20033;-71
2021/11/30 00:11:59;;;;;;;12.98;6.32;;;;;;;0.84;100.00;98590.06;5036539;28;20056;-71
2021/11/30 00:14:25;;;;;;;14.35;6.70;;;;;;;0.97;100.00;98619.00;5036293;28;20036;-71
2021/11/30 00:16:50;;;;;;;10.73;5.88;;;;;;;1.05;100.00;98638.63;5041459;28;20051;-72
2021/11/30 00:19:15;;;;;;;12.55;6.45;;;;;;;1.12;100.00;98643.34;5041611;28;20029;-71
2021/11/30 00:21:41;;;;;;;12.65;5.82;;;;;;;0.99;100.00;98617.88;5038967;28;20025;-71
2021/11/30 00:24:06;;;;;;;12.77;6.53;;;;;;;1.11;100.00;98639.84;5040563;28;20078;-72
2021/11/30 00:26:32;;;;;;;17.58;7.20;;;;;;;1.03;100.00;98621.94;5040487;28;20029;-71
2021/11/30 00:28:58;;;;;;;12.32;6.57;;;;;;;0.98;100.00;98620.69;5036590;28;20025;-71
2021/11/30 00:31:23;;;;;;;12.73;6.72;;;;;;;1.09;100.00;98645.31;5040310;28;20040;-71
2021/11/30 00:33:48;;;;;;;15.07;6.03;;;;;;;1.02;100.00;98628.25;5041134;28;20091;-72
2021/11/30 00:36:14;;;;;;;14.68;5.97;;;;;;;1.10;100.00;98643.47;5035021;28;20125;-71
2021/11/30 00:38:39;;;;;;;11.65;6.82;;;;;;;1.08;100.00;98648.13;5038631;28;20029;-71
2021/11/30 00:41:04;;;;;;;11.20;5.72;;;;;;;1.09;100.00;98636.47;5038069;28;20060;-72
2021/11/30 00:43:34;;;;;;;10.05;5.85;;;;;;;1.02;100.00;98625.59;5027032;28;20101;-71
2021/11/30 00:46:09;;;;;;;14.50;6.28;;;;;;;1.02;100.00;98625.59;5039933;28;20017;-71
2021/11/30 00:48:34;;;;;;;9.40;6.22;;;;;;;1.16;100.00;98652.72;5038588;28;20034;-72
2021/11/30 00:51:05;;;;;;;11.65;6.32;;;;;;;1.17;100.00;98655.22;5035055;28;20044;-71
2021/11/30 00:53:30;;;;;;;9.25;5.93;;;;;;;1.07;100.00;98649.97;5036661;28;20025;-71
2021/11/30 00:55:56;;;;;;;14.85;6.50;;;;;;;1.13;100.00;98655.66;5036805;28;20371;-71
2021/11/30 00:58:21;;;;;;;9.88;5.97;;;;;;;0.95;100.00;98624.50;5033028;28;20025;-72
2021/11/30 01:00:47;;;;;;;10.98;6.20;;;;;;;1.04;100.00;98638.75;5036201;28;20422;-71
2021/11/30 01:03:12;;;;;;;14.95;6.22;;;;;;;1.10;100.00;98654.13;5036264;28;20036;-71
2021/11/30 01:05:37;;;;;;;17.80;7.57;;;;;;;1.01;100.00;98639.03;5035274;28;20026;-73
2021/11/30 01:08:04;;;;;;;16.40;5.95;;;;;;;1.13;100.00;98650.34;5034915;28;20017;-71
2021/11/30 01:10:31;;;;;;;13.85;6.32;;;;;;;1.14;100.00;98654.69;5029350;28;20057;-71
2021/11/30 01:12:56;;;;;;;12.27;5.97;;;;;;;1.09;100.00;98641.81;5034531;28;20024;-72
2021/11/30 01:15:22;;;;;;;11.50;5.90;;;;;;;1.18;100.00;98650.75;5036312;28;20100;-71
2021/11/30 01:17:48;;;;;;;10.00;5.63;;;;;;;1.04;100.00;98655.56;5034919;28;20021;-71
2021/11/30 01:20:15;;;;;;;14.90;6.25;;;;;;;1.04;100.00;98668.06;5035392;28;20028;-72
2021/11/30 01:22:41;;;;;;;11.32;5.60;;;;;;;1.09;100.00;98679.94;5035472;28;20021;-71
2021/11/30 01:25:07;;;;;;;10.55;5.05;;;;;;;1.04;100.00;98660.91;5036093;28;20159;-71
2021/11/30 01:27:33;;;;;;;11.50;5.68;;;;;;;1.09;100.00;98669.28;5029801;28;20021;-71
2021/11/30 01:29:58;;;;;;;15.25;5.85;;;;;;;1.09;100.00;98671.94;5035093;28;20052;-71
2021/11/30 01:32:24;;;;;;;17.88;5.70;;;;;;;1.20;100.00;98680.75;5034760;28;20029;-71
2021/11/30 01:34:49;;;;;;;13.98;5.47;;;;;;;1.08;100.00;98662.28;5035186;28;20071;-71
2021/11/30 01:37:16;;;;;;;11.93;5.93;;;;;;;1.16;100.00;98687.38;5034797;28;20055;-71
2021/11/30 01:39:43;;;;;;;12.13;5.43;;;;;;;1.25;100.00;98689.97;5030822;28;20029;-71
2021/11/30 01:42:11;;;;;;;9.02;5.20;;;;;;;1.27;100.00;98692.50;5020871;28;20036;-70
2021/11/30 01:44:49;;;;;;;15.05;5.60;;;;;;;1.12;100.00;98686.81;5030932;28;20475;-72
2021/11/30 01:49:55;;;;;;;13.68;5.72;;;;;;;1.25;100.00;98699.81;5034895;28;20024;-71
2021/11/30 01:52:21;;;;;;;11.38;4.95;;;;;;;1.25;100.00;98699.81;5034821;28;20610;-72
2021/11/30 01:54:49;;;;;;;8.90;4.93;;;;;;;1.25;100.00;98697.13;5035037;28;20057;-74
2021/11/30 01:57:17;;;;;;;8.45;4.53;;;;;;;1.30;99.77;98698.38;5034137;28;20434;-71
2021/11/30 01:59:44;;;;;;;12.57;5.15;;;;;;;1.23;99.26;98677.78;5031142;28;20053;-72
2021/11/30 02:02:09;;;;;;;7.82;4.72;;;;;;;1.23;99.30;98691.09;5033725;28;20399;-71
2021/11/30 02:04:36;;;;;;;12.25;4.40;;;;;;;1.31;98.51;98709.91;5034975;28;20083;-72
2021/11/30 02:07:02;;;;;;;12.20;5.32;;;;;;;1.13;99.26;98684.97;5034008;28;20029;-71
2021/11/30 02:09:28;;;;;;;10.32;5.53;;;;;;;1.10;98.93;98670.13;5033782;28;20435;-71
2021/11/30 02:11:53;;;;;;;12.55;4.95;;;;;;;1.35;98.01;98723.75;5032834;28;20028;-71
2021/11/30 02:14:19;;;;;;;7.00;4.63;;;;;;;1.37;98.09;98708.47;5034056;28;20026;-71
2021/11/30 02:16:45;;;;;;;11.40;4.63;;;;;;;1.42;97.38;98716.88;5033698;28;20471;-71
2021/11/30 02:19:11;;;;;;;9.30;4.60;;;;;;;1.40;97.81;98714.34;5033742;28;20022;-71
2021/11/30 02:21:39;;;;;;;10.30;4.43;;;;;;;1.29;97.52;98703.88;5031900;28;20083;-71
2021/11/30 02:24:05;;;;;;;12.20;4.82;;;;;;;1.39;97.38;98723.31;5029001;28;20026;-71
2021/11/30 02:26:32;;;;;;;12.48;4.35;;;;;;;1.29;96.89;98701.19;5030878;28;20034;-71
2021/11/30 02:28:58;;;;;;;12.65;4.25;;;;;;;1.24;96.15;98709.63;5031331;28;20032;-71
2021/11/30 02:31:26;;;;;;;6.53;4.10;;;;;;;1.38;96.71;98715.47;5032264;28;20025;-70
2021/11/30 02:33:52;;;;;;;10.18;3.90;;;;;;;1.27;96.25;98693.34;5031825;28;20029;-70
2021/11/30 02:36:35;;;;;;;8.57;4.53;;;;;;;1.42;95.05;98723.03;5032191;28;20026;-71
2021/11/30 02:39:02;;;;;;;10.48;3.83;;;;;;;1.42;95.56;98724.84;5016246;28;20398;-71
2021/11/30 02:41:28;;;;;;;6.78;4.28;;;;;;;1.23;96.26;98696.44;5032665;28;20030;-71
2021/11/30 02:43:53;;;;;;;13.10;4.03;;;;;;;1.40;94.75;98733.00;5032638;28;20029;-70
2021/11/30 02:46:29;;;;;;;9.05;3.80;;;;;;;1.40;94.40;98734.81;5032447;28;20361;-71
2021/11/30 02:48:54;;;;;;;10.43;4.13;;;;;;;1.18;94.66;98706.69;5032235;28;20049;-70
2021/11/30 02:51:19;;;;;;;8.63;3.92;;;;;;;1.40;94.47;98741.00;5032669;28;20060;-70
2021/11/30 02:53:45;;;;;;;8.63;3.70;;;;;;;1.38;94.53;98745.63;5030243;28;20022;-71
2021/11/30 02:56:10;;;;;;;8.32;3.47;;;;;;;1.39;93.58;98726.00;5013196;28;20033;-71
2021/11/30 02:58:35;;;;;;;8.80;3.38;;;;;;;1.42;93.30;98730.19;5029743;28;20040;-71
2021/11/30 03:01:04;;;;;;;7.25;3.40;;;;;;;1.31;93.48;98715.22;5032395;28;20434;-71
2021/11/30 03:03:29;;;;;;;7.38;3.03;;;;;;;1.44;92.23;98723.72;5033190;28;20108;-71
2021/11/30 03:05:56;;;;;;;3.80;2.63;;;;;;;1.44;91.92;98721.06;5032531;28;20057;-72
2021/11/30 03:08:22;;;;;;;4.40;2.65;;;;;;;1.42;91.14;98715.03;5032587;28;20021;-71
2021/11/30 03:10:47;;;;;;;7.82;2.78;;;;;;;1.50;91.93;98743.63;5032036;28;20083;-71
2021/11/30 03:13:12;;;;;;;5.10;2.88;;;;;;;1.46;91.83;98718.22;5031070;28;20028;-71
2021/11/30 03:15:38;;;;;;;10.05;2.70;;;;;;;1.22;92.04;98687.59;5030099;28;20025;-71
2021/11/30 03:18:03;;;;;;;5.85;2.92;;;;;;;1.48;91.70;98725.09;5020564;28;20033;-71
2021/11/30 03:20:29;;;;;;;5.70;2.47;;;;;;;1.41;90.93;98705.34;5013181;28;20471;-70
2021/11/30 03:22:54;;;;;;;5.93;2.25;;;;;;;1.53;90.72;98728.16;5022518;28;20117;-70
2021/11/30 03:25:19;;;;;;;4.45;1.80;;;;;;;1.53;90.47;98711.31;5032508;28;20479;-70
2021/11/30 03:27:47;;;;;;;6.20;2.58;;;;;;;1.56;90.71;98718.19;5039183;28;20030;-70
2021/11/30 03:30:13;;;;;;;6.50;2.47;;;;;;;1.54;89.54;98703.16;5031006;28;20024;-70
2021/11/30 03:35:23;;;;;;;5.95;2.00;;;;;;;1.66;88.94;98713.66;5026097;28;20036;-70
2021/11/30 03:37:49;;;;;;;3.10;1.95;;;;;;;1.61;89.40;98726.59;5035299;28;20032;-70
2021/11/30 03:40:14;;;;;;;5.10;1.80;;;;;;;1.65;88.33;98717.28;5035178;28;20029;-70
2021/11/30 03:42:39;;;;;;;4.80;2.13;;;;;;;1.53;88.20;98698.81;5028006;28;20040;-70
2021/11/30 03:45:06;;;;;;;5.60;2.25;;;;;;;1.62;87.57;98698.91;5035992;28;20021;-70
2021/11/30 03:47:31;;;;;;;6.13;2.22;;;;;;;1.59;87.56;98684.06;5036092;28;20452;-70
2021/11/30 03:49:57;;;;;;;4.68;2.03;;;;;;;1.68;88.01;98693.84;5035315;28;20104;-71
2021/11/30 03:52:22;;;;;;;5.45;2.03;;;;;;;1.64;88.62;98687.13;5035899;28;20029;-71
2021/11/30 03:54:47;;;;;;;4.50;1.98;;;;;;;1.64;88.73;98687.13;5036243;28;20058;-70
2021/11/30 03:57:13;;;;;;;6.22;1.83;;;;;;;1.70;88.14;98689.22;5018978;28;20116;-70
2021/11/30 03:59:38;;;;;;;5.30;2.30;;;;;;;1.70;88.27;98677.69;5028946;28;20022;-70
2021/11/30 04:02:03;;;;;;;11.05;2.10;;;;;;;1.69;89.21;98673.34;5014479;28;20083;-70
2021/11/30 04:04:35;;;;;;;4.07;1.88;;;;;;;1.78;88.25;98676.94;5031273;28;20029;-70
2021/11/30 04:07:01;;;;;;;6.43;1.95;;;;;;;1.67;87.39;98662.81;5016236;28;20032;-70
2021/11/30 04:09:26;;;;;;;7.25;2.15;;;;;;;1.81;87.43;98673.94;5028259;28;20022;-70
2021/11/30 04:11:53;;;;;;;4.78;2.10;;;;;;;1.73;86.72;98659.56;5016277;28;20018;-70
2021/11/30 04:14:18;;;;;;;4.32;1.90;;;;;;;1.73;88.81;98662.22;5036361;28;20505;-71
2021/11/30 04:16:45;;;;;;;3.17;1.38;;;;;;;1.58;87.18;98637.06;5029841;28;20100;-68
2021/11/30 04:19:10;;;;;;;4.03;1.63;;;;;;;1.75;87.79;98662.06;5032422;28;20509;-70
2021/11/30 04:21:36;;;;;;;8.70;1.50;;;;;;;1.78;87.27;98653.75;5029760;28;20033;-72
2021/11/30 04:24:02;;;;;;;6.07;1.90;;;;;;;1.79;87.25;98642.13;5031760;28;20029;-72
2021/11/30 04:26:28;;;;;;;4.05;1.33;;;;;;;1.66;86.83;98626.47;5035320;28;20116;-73
2021/11/30 04:28:54;;;;;;;8.80;1.52;;;;;;;1.75;86.85;98636.22;5032854;28;20097;-73
2021/11/30 04:31:19;;;;;;;2.22;1.05;;;;;;;1.85;85.42;98632.66;5036579;28;20025;-73
2021/11/30 04:33:45;;;;;;;6.13;1.80;;;;;;;1.90;85.64;98652.56;5032369;28;20475;-71
2021/11/30 04:36:10;;;;;;;4.22;1.60;;;;;;;1.69;86.02;98614.66;5033209;28;20017;-75
2021/11/30 04:38:38;;;;;;;2.67;1.20;;;;;;;1.83;85.38;98651.47;5031883;28;20028;-73
2021/11/30 04:41:04;;;;;;;6.70;1.10;;;;;;;1.81;85.50;98637.47;5020301;28;20104;-75
2021/11/30 04:43:36;;;;;;;5.72;1.63;;;;;;;1.83;86.24;98645.31;5035248;28;20025;-73
2021/11/30 04:46:27;;;;;;;7.00;1.65;;;;;;;1.84;85.69;98642.50;5037889;28;20553;-73
2021/11/30 04:48:57;;;;;;;3.90;1.17;;;;;;;1.73;85.12;98630.22;5034246;28;20087;-74
2021/11/30 04:51:24;;;;;;;5.63;1.60;;;;;;;1.85;84.27;98636.16;5051777;28;20303;-75
2021/11/30 04:53:51;;;;;;;1.35;1.00;;;;;;;1.72;84.30;98611.69;5038360;28;20033;-75
2021/11/30 04:56:16;;;;;;;4.55;1.30;;;;;;;1.63;84.82;98608.13;5033112;28;20631;-75
2021/11/30 04:58:43;;;;;;;5.05;1.00;;;;;;;1.61;84.29;98587.94;5022338;28;20038;-77
2021/11/30 05:01:09;;;;;;;4.40;1.40;;;;;;;1.84;85.00;98621.16;5029535;28;20040;-74
2021/11/30 05:03:35;;;;;;;1.70;1.10;;;;;;;1.57;85.99;98589.22;5050633;28;20040;-74
2021/11/30 05:06:01;;;;;;;3.58;1.42;;;;;;;1.63;87.42;98608.13;5035258;28;20029;-75
2021/11/30 05:08:28;;;;;;;7.13;1.15;;;;;;;1.71;87.82;98642.03;5035929;28;20156;-70
2021/11/30 05:10:53;;;;;;;3.50;1.27;;;;;;;1.53;88.61;98605.50;5032713;28;20014;-74
2021/11/30 05:13:18;;;;;;;6.85;1.30;;;;;;;1.19;89.34;98552.00;5038454;28;20029;-73
2021/11/30 05:15:44;;;;;;;2.97;1.50;;;;;;;1.28;90.69;98576.91;5039716;28;20040;-76
2021/11/30 05:18:09;;;;;;;5.57;1.35;;;;;;;1.35;92.19;98599.31;5040997;28;20121;-74
2021/11/30 05:20:35;;;;;;;3.65;1.55;;;;;;;1.20;93.64;98584.81;5037869;28;20464;-75
2021/11/30 05:23:01;;;;;;;4.47;1.45;;;;;;;1.42;93.74;98623.56;5039691;28;20067;-74
2021/11/30 05:25:33;;;;;;;3.42;1.40;;;;;;;1.19;94.11;98591.97;5038700;28;20063;-74
2021/11/30 05:28:00;;;;;;;4.72;1.85;;;;;;;1.26;94.93;98626.88;5041339;28;20040;-73
2021/11/30 05:30:25;;;;;;;5.78;1.40;;;;;;;1.09;95.62;98605.34;5036312;28;20164;-76
2021/11/30 05:32:51;;;;;;;4.50;1.45;;;;;;;1.05;96.12;98587.16;5033632;28;20097;-74
2021/11/30 05:35:17;;;;;;;4.35;1.73;;;;;;;1.16;97.00;98636.75;5033076;28;20053;-79
2021/11/30 05:37:42;;;;;;;3.15;1.67;;;;;;;1.05;97.66;98624.47;5036199;28;20048;-77
2021/11/30 05:40:09;;;;;;;3.65;1.27;;;;;;;1.12;98.74;98630.03;5051554;28;20049;-77
2021/11/30 05:42:34;;;;;;;3.97;1.35;;;;;;;0.92;98.74;98603.47;5034907;28;20406;-76
2021/11/30 05:45:00;;;;;;;2.55;1.52;;;;;;;0.85;99.87;98605.06;5033400;28;20028;-74
2021/11/30 05:47:25;;;;;;;3.78;1.48;;;;;;;0.86;100.00;98606.72;5032041;28;20034;-73
2021/11/30 05:49:51;;;;;;;5.20;2.00;;;;;;;0.75;100.00;98590.94;5033625;28;20159;-77
2021/11/30 05:52:16;;;;;;;6.40;2.20;;;;;;;0.63;100.00;98596.44;5033070;28;20018;-75
2021/11/30 05:54:42;;;;;;;6.18;1.90;;;;;;;0.59;100.00;98591.56;5025871;28;20520;-74
2021/11/30 05:57:10;;;;;;;4.47;1.75;;;;;;;0.52;100.00;98612.56;5033947;28;20022;-70
2021/11/30 05:59:39;;;;;;;5.40;2.67;;;;;;;0.33;100.00;98578.03;5032493;28;20487;-75
2021/11/30 06:02:07;;;;;;;;;;;;;;;0.43;100.00;98597.47;5034661;28;20746;-78
2021/11/30 06:04:32;;;;;;;5.85;2.67;;;;;;;0.18;100.00;98567.88;5051008;28;19919;-72
2021/11/30 06:06:57;;;;;;;5.25;3.15;;;;;;;0.24;100.00;98592.19;5034090;28;20033;-73
2021/11/30 06:09:23;;;;;;;5.65;2.40;;;;;;;0.03;100.00;98571.09;5033810;28;20025;-71
2021/11/30 06:11:48;;;;;;;7.15;3.00;;;;;;;-0.01;100.00;98563.41;5027116;28;20021;-71
2021/11/30 06:14:13;;;;;;;6.68;2.92;;;;;;;0.16;100.00;98600.91;5033791;28;20034;-69
2021/11/30 06:16:38;;;;;;;7.03;2.78;;;;;;;0.11;100.00;98589.84;5034658;28;20030;-73
2021/11/30 06:19:04;;;;;;;6.80;3.35;;;;;;;0.05;100.00;98593.91;5034348;28;20029;-73
2021/11/30 06:21:30;;;;;;;6.35;3.35;;;;;;;-0.02;100.00;98584.84;5032927;28;20033;-72
2021/11/30 06:23:55;;;;;;;6.90;3.05;;;;;;;-0.05;100.00;98593.09;5030194;28;20124;-70
2021/11/30 06:26:21;;;;;;;4.90;2.88;;;;;;;-0.09;100.00;98583.72;5026472;28;20017;-70
2021/11/30 06:28:46;;;;;;;8.68;3.20;;;;;;;-0.14;100.00;98575.31;5030707;28;20021;-70
2021/11/30 06:31:11;;;;;;;6.63;3.50;;;;;;;-0.16;100.00;98575.44;5030198;28;20027;-70
2021/11/30 06:33:37;;;;;;;8.10;4.03;;;;;;;-0.19;100.00;98575.72;5031121;28;20037;-68
2021/11/30 06:36:04;;;;;;;10.15;4.07;;;;;;;-0.23;100.00;98569.88;5031343;28;20029;-72
2021/11/30 06:38:30;;;;;;;8.55;4.20;;;;;;;-0.26;100.00;98551.53;5028458;28;20059;-69
2021/11/30 06:40:56;;;;;;;8.95;4.53;;;;;;;-0.36;100.00;98542.72;5024779;28;20108;-69
2021/11/30 06:43:22;;;;;;;8.95;4.68;;;;;;;-0.45;100.00;98532.94;5029831;28;20039;-68
2021/11/30 06:45:48;;;;;;;7.70;4.03;;;;;;;-0.45;100.00;98535.59;5028525;28;20029;-71
2021/11/30 06:48:15;;;;;;;9.07;4.35;;;;;;;-0.39;100.00;98556.31;5049007;28;20205;-66
2021/11/30 06:50:41;;;;;;;12.48;5.20;;;;;;;-0.59;100.00;98528.88;5032263;28;20487;-72
2021/11/30 06:53:06;;;;;;;12.63;5.35;;;;;;;-0.51;100.00;98536.16;5031344;28;20026;-69
2021/11/30 06:55:31;;;;;;;15.35;5.32;;;;;;;-0.57;100.00;98526.09;5030745;28;20036;-69
2021/11/30 06:57:57;;;;;;;10.63;5.38;;;;;;;-0.52;100.00;98543.28;5029024;28;20032;-70
2021/11/30 07:00:25;;;;;;;9.30;5.40;;;;;;;-0.48;100.00;98543.84;5032198;28;20025;-71
2021/11/30 07:02:51;;;;;;;12.10;5.47;;;;;;;-0.44;100.00;98539.94;5032731;28;20083;-70
2021/11/30 07:05:24;;;;;;;11.70;6.00;;;;;;;-0.45;100.00;98540.91;5028865;28;20085;-71
2021/11/30 07:13:22;;;;;;;8.32;5.05;;;;;;;-0.43;100.00;98524.81;5032750;28;20033;-67
2021/11/30 07:16:00;;;;;;;17.55;5.75;;;;;;;-0.40;100.00;98521.88;5025106;28;20029;-71
2021/11/30 07:18:26;;;;;;;10.13;5.22;;;;;;;-0.48;100.00;98502.16;5031941;28;20091;-70
2021/11/30 07:20:53;;;;;;;14.32;5.55;;;;;;;-0.39;100.00;98513.78;5028039;28;20426;-70
2021/11/30 07:23:19;;;;;;;16.63;6.38;;;;;;;-0.40;100.00;98514.75;5031786;28;20021;-69
2021/11/30 07:25:45;;;;;;;14.90;5.68;;;;;;;-0.50;100.00;98493.50;5030671;28;20121;-73
2021/11/30 07:28:10;;;;;;;14.75;5.47;;;;;;;-0.55;100.00;98476.28;5031816;28;20052;-72
2021/11/30 07:30:37;;;;;;;16.60;6.00;;;;;;;-0.34;100.00;98513.34;5023370;28;20017;-70
2021/11/30 07:33:03;;;;;;;14.23;6.10;;;;;;;-0.43;100.00;98480.47;5035074;28;20033;-71
2021/11/30 07:35:29;;;;;;;12.10;5.45;;;;;;;-0.45;100.00;98475.31;5030923;28;20384;-69
2021/11/30 07:37:55;;;;;;;9.73;4.78;;;;;;;-0.36;100.00;98488.75;5030522;28;20022;-72
2021/11/30 07:40:21;;;;;;;10.90;5.28;;;;;;;-0.26;100.00;98501.03;5030873;28;20109;-70
2021/11/30 07:42:47;;;;;;;11.30;4.35;;;;;;;-0.25;100.00;98497.38;5045150;28;20491;-71
2021/11/30 07:45:14;;;;;;;6.65;4.15;;;;;;;-0.41;100.00;98469.72;5034539;28;20029;-73
2021/11/30 07:47:40;;;;;;;7.75;4.68;;;;;;;-0.29;100.00;98482.72;5030347;28;20063;-70
2021/11/30 07:50:07;;;;;;;8.02;4.50;;;;;;;-0.23;100.00;98498.09;5030633;28;20479;-70
2021/11/30 07:52:36;;;;;;;13.07;5.10;;;;;;;-0.32;100.00;98482.16;5032372;28;20091;-70
2021/11/30 07:55:05;;;;;;;7.55;4.53;;;;;;;-0.51;100.00;98435.19;5032941;28;20025;-70
2021/11/30 07:57:31;;;;;;;12.23;4.90;;;;;;;-0.28;100.00;98492.34;5032539;28;20022;-70
2021/11/30 07:59:57;;;;;;;6.72;3.70;;;;;;;-0.27;100.00;98485.22;5014954;28;20021;-69
2021/11/30 08:02:22;;;;;;;7.93;3.65;;;;;;;-0.35;100.00;98472.63;5030799;28;20029;-70
2021/11/30 08:04:49;;;;;;;7.88;3.17;;;;;;;-0.19;100.00;98498.63;5026114;28;20536;-69
2021/11/30 08:07:16;;;;;;;6.97;3.72;;;;;;;-0.19;100.00;98481.84;5031309;28;20072;-70
2021/11/30 08:09:48;;;;;;;10.35;3.75;;;;;;;-0.16;100.00;98484.22;5033088;28;20104;-70
2021/11/30 08:12:13;;;;;;;8.25;3.38;;;;;;;-0.12;100.00;98472.31;5023732;28;20390;-72
2021/11/30 08:14:39;;;;;;;8.77;3.67;;;;;;;-0.26;100.00;98450.53;5029099;28;20026;-73
2021/11/30 08:17:09;;;;;;;5.10;3.15;;;;;;;-0.34;100.00;98439.78;5029679;28;20529;-73
2021/11/30 08:19:35;;;;;;;6.32;3.33;;;;;;;-0.29;100.00;98432.22;5031171;28;20033;-72
2021/11/30 08:22:01;;;;;;;5.60;2.90;;;;;;;-0.19;100.00;98464.06;5019830;28;20048;-67
2021/11/30 08:24:26;;;;;;;6.78;3.75;;;;;;;-0.19;100.00;98440.13;5035003;28;20399;-72
2021/11/30 08:26:52;;;;;;;7.78;4.63;;;;;;;-0.45;100.00;98422.19;5030903;28;20152;-70
2021/11/30 08:29:17;;;;;;;7.65;4.10;;;;;;;-0.25;100.00;98446.88;5043174;28;20029;-71
2021/11/30 08:31:42;;;;;;;5.35;3.45;;;;;;;-0.24;100.00;98455.69;5038010;28;20029;-72
2021/11/30 08:34:08;;;;;;;5.90;3.10;;;;;;;-0.60;100.00;98396.16;5037337;28;20026;-72
2021/11/30 08:36:33;;;;;;;5.20;2.97;;;;;;;-0.42;100.00;98431.66;5038452;28;20021;-72
2021/11/30 08:38:58;;;;;;;7.60;2.90;;;;;;;-0.30;100.00;98435.84;5036450;28;20429;-73
2021/11/30 08:41:24;;;;;;;5.20;2.88;;;;;;;-0.21;100.00;98452.72;5033215;28;20067;-66
2021/11/30 08:43:50;;;;;;;4.35;2.38;;;;;;;-0.23;100.00;98441.44;5031581;28;20033;-66
2021/11/30 08:46:16;;;;;;;5.70;2.95;;;;;;;-0.28;100.00;98431.22;5033918;28;20025;-70
2021/11/30 08:48:41;;;;;;;12.20;2.90;;;;;;;-0.42;100.00;98415.72;5034780;28;20037;-70
2021/11/30 08:51:06;;;;;;;6.43;2.80;;;;;;;-0.47;100.00;98408.19;5023763;28;20036;-72
2021/11/30 08:53:35;;;;;;;6.88;2.70;;;;;;;-0.37;100.00;98428.56;5031827;28;20017;-74
2021/11/30 08:56:05;;;;;;;5.27;2.83;;;;;;;-0.31;100.00;98428.03;5050201;28;20029;-70
2021/11/30 08:58:31;;;;;;;8.25;3.40;;;;;;;-0.32;100.00;98439.63;5035515;28;20272;-75
2021/11/30 09:00:57;;;;;;;5.75;3.28;;;;;;;-0.60;100.00;98398.81;5028393;28;20549;-74
2021/11/30 09:03:22;;;;;;;6.20;2.95;;;;;;;-0.32;100.00;98443.09;5028138;28;20108;-73
2021/11/30 09:05:47;;;;;;;5.40;3.10;;;;;;;-0.61;100.00;98405.97;5028735;28;20078;-71
2021/11/30 09:08:13;;;;;;;6.97;3.00;;;;;;;-0.43;100.00;98422.00;5034997;28;20036;-73
2021/11/30 09:10:39;;;;;;;5.32;3.25;;;;;;;-0.46;100.00;98439.09;5033853;28;20022;-74
2021/11/30 09:13:05;;;;;;;6.38;4.10;;;;;;;-0.47;100.00;98425.97;5031029;28;20112;-75
2021/11/30 09:15:30;;;;;;;7.35;3.50;;;;;;;-0.45;100.00;98439.91;5033327;28;20103;-72
2021/11/30 09:17:56;;;;;;;4.90;3.10;;;;;;;-0.52;100.00;98430.84;5034626;28;20036;-76
2021/11/30 09:20:23;;;;;;;5.63;3.17;;;;;;;-0.47;100.00;98440.06;5056579;22;20038;-78
2021/11/30 09:22:50;;;;;;;6.40;3.70;;;;;;;-0.42;100.00;98452.91;5034701;28;20083;-75
2021/11/30 09:25:15;;;;;;;10.90;3.88;;;;;;;-0.46;100.00;98440.91;5057175;28;20108;-76
2021/11/30 09:27:42;;;;;;;6.40;3.60;;;;;;;-0.47;100.00;98439.25;5068961;28;20017;-75
2021/11/30 09:30:10;;;;;;;6.63;3.60;;;;;;;-0.41;100.00;98437.84;5046959;28;20002;-78
2021/11/30 09:32:36;;;;;;;7.65;3.97;;;;;;;-0.45;100.00;98438.13;5035202;28;20022;-74
2021/11/30 09:35:01;;;;;;;6.40;3.72;;;;;;;-0.49;100.00;98402.16;5033740;28;20020;-74
2021/11/30 09:37:27;;;;;;;6.95;3.80;;;;;;;-0.54;100.00;98411.56;5030272;28;20014;-73
2021/11/30 09:39:53;;;;;;;9.32;4.15;;;;;;;-0.40;100.00;98418.22;5033015;28;20013;-71
2021/11/30 09:42:18;;;;;;;9.77;4.07;;;;;;;-0.50;100.00;98407.63;5034345;28;20038;-74
2021/11/30 09:44:45;;;;;;;7.47;4.35;;;;;;;-0.41;100.00;98417.41;5022604;28;20048;-72
2021/11/30 09:47:11;;;;;;;14.13;5.55;;;;;;;-0.35;100.00;98416.81;5021031;28;20113;-68
2021/11/30 09:49:37;;;;;;;13.80;6.60;;;;;;;-0.40;100.00;98408.44;5010837;28;21486;-72
2021/11/30 09:52:03;;;;;;;11.20;4.97;;;;;;;-0.44;100.00;98385.81;5015945;28;20032;-72
2021/11/30 09:54:28;;;;;;;9.48;4.95;;;;;;;-0.41;100.00;98395.31;5012816;28;20387;-73
2021/11/30 09:56:54;;;;;;;8.57;4.20;;;;;;;-0.46;100.00;98377.97;5014963;28;20018;-76
2021/11/30 09:59:19;;;;;;;6.88;4.25;;;;;;;-0.39;100.00;98393.31;5014891;28;20048;-74
2021/11/30 10:01:45;;;;;;;6.85;3.80;;;;;;;-0.32;100.00;98402.41;5014300;28;20014;-78
2021/11/30 10:04:10;;;;;;;8.80;4.57;;;;;;;-0.46;100.00;98354.03;5013163;28;20093;-77
2021/11/30 10:06:35;;;;;;;7.63;4.13;;;;;;;-0.37;100.00;98370.94;5012556;28;20026;-73
2021/11/30 10:09:13;;;;;;;8.82;3.92;;;;;;;-0.50;100.00;98360.66;5013495;28;20026;-75
2021/11/30 10:11:38;;;;;;;7.78;3.63;;;;;;;-0.43;100.00;98371.53;5025253;28;20029;-75
2021/11/30 10:14:23;;;;;;;8.73;3.75;;;;;;;-0.35;100.00;98381.44;5013514;28;20030;-77
2021/11/30 10:17:09;;;;;;;5.95;3.45;;;;;;;-0.35;100.00;98376.94;5011978;28;20030;-73
2021/11/30 10:19:34;;;;;;;7.00;3.72;;;;;;;-0.34;100.00;98370.66;5010075;28;20484;-74
2021/11/30 10:22:00;;;;;;;9.57;3.95;;;;;;;-0.34;100.00;98370.66;5012835;28;20029;-74
2021/11/30 10:24:25;;;;;;;7.63;3.65;;;;;;;-0.35;100.00;98378.78;5012286;28;20069;-74
2021/11/30 10:26:55;;;;;;;6.20;3.20;;;;;;;-0.43;100.00;98368.88;4999060;28;20054;-76
2021/11/30 10:29:20;;;;;;;;;;;;;;;-0.26;100.00;98368.13;5002171;28;20488;-73
2021/11/30 10:31:49;;;;;;;6.85;3.45;;;;;;;-0.24;100.00;98371.47;5010253;28;19917;-73
2021/11/30 10:34:21;;;;;;;9.60;3.72;;;;;;;-0.18;100.00;98374.50;5008021;28;20387;-77
2021/11/30 10:36:48;;;;;;;7.22;3.40;;;;;;;-0.17;100.00;98350.44;5013698;28;20044;-75
2021/11/30 10:39:29;;;;;;;4.32;3.13;;;;;;;-0.12;100.00;98336.72;5012806;28;20491;-78
2021/11/30 10:42:18;;;;;;;5.28;3.00;;;;;;;-0.11;100.00;98359.66;5013216;28;20029;-71
2021/11/30 10:44:46;;;;;;;5.93;2.90;;;;;;;-0.12;100.00;98355.34;5014433;28;20037;-75
2021/11/30 10:47:19;;;;;;;6.35;2.97;;;;;;;-0.19;100.00;98348.91;5012754;28;20037;-74
2021/11/30 10:49:49;;;;;;;5.47;3.08;;;;;;;-0.08;100.00;98359.34;5003506;28;20108;-74
2021/11/30 10:52:20;;;;;;;5.53;2.78;;;;;;;-0.14;100.00;98326.22;5002286;28;20036;-73
2021/11/30 10:54:45;;;;;;;5.65;2.83;;;;;;;-0.10;100.00;98356.03;5013034;28;20395;-73
2021/11/30 10:57:10;;;;;;;7.22;2.72;;;;;;;-0.11;100.00;98346.34;5013032;28;20034;-74
2021/11/30 10:59:36;;;;;;;4.80;2.65;;;;;;;-0.08;100.00;98348.72;5011721;28;20121;-73
2021/11/30 11:02:01;;;;;;;6.90;2.55;;;;;;;-0.15;100.00;98326.38;5011509;28;20052;-73
2021/11/30 11:04:29;;;;;;;5.60;2.83;;;;;;;-0.09;100.00;98339.06;5027887;28;20049;-73
2021/11/30 11:07:12;;;;;;;3.90;2.25;;;;;;;-0.14;100.00;98336.84;5010876;28;20039;-73
2021/11/30 11:09:39;;;;;;;4.47;2.72;;;;;;;-0.11;100.00;98336.56;5008503;28;20048;-72
2021/11/30 11:12:05;;;;;;;4.10;2.25;;;;;;;-0.12;100.00;98336.72;5011559;28;20026;-72
2021/11/30 11:14:48;;;;;;;3.22;2.05;;;;;;;-0.06;100.00;98330.81;5007212;28;20483;-72
2021/11/30 11:17:31;;;;;;;4.60;2.47;;;;;;;-0.01;100.00;98310.75;4998611;28;20452;-71
2021/11/30 11:19:57;;;;;;;4.60;2.60;;;;;;;-0.01;100.00;98317.91;5008747;28;20048;-71
2021/11/30 11:22:25;;;;;;;3.92;2.25;;;;;;;0.04;100.00;98331.59;5012713;28;20538;-71
2021/11/30 11:24:55;;;;;;;3.10;1.90;;;;;;;0.03;100.00;98327.28;5011827;28;20037;-71
2021/11/30 11:27:39;;;;;;;5.97;2.10;;;;;;;0.05;100.00;98311.97;5011554;28;20069;-71
2021/11/30 11:30:07;;;;;;;2.58;1.70;;;;;;;-0.01;100.00;98312.59;5006270;28;20030;-71
2021/11/30 11:32:33;;;;;;;3.67;2.03;;;;;;;-0.12;100.00;98296.84;4991496;28;20117;-71
2021/11/30 11:34:59;;;;;;;3.72;2.10;;;;;;;-0.11;100.00;98295.84;4997367;28;20554;-71
2021/11/30 11:37:25;;;;;;;2.90;1.60;;;;;;;0.04;100.00;98312.16;5000575;28;20518;-71
2021/11/30 11:39:52;;;;;;;6.70;2.42;;;;;;;0.03;100.00;98308.66;5008337;28;20044;-71
2021/11/30 11:42:20;;;;;;;4.88;1.90;;;;;;;0.11;100.00;98297.28;4995495;28;20065;-69
2021/11/30 11:44:45;;;;;;;3.75;1.88;;;;;;;0.14;100.00;98305.78;4991233;28;20042;-69